createdAt,value
2022-11-26T00:00:05.045Z,23.8
2022-11-26T00:05:29.274Z,23.6
2022-11-26T00:11:07.071Z,23.6
2022-11-26T00:16:29.356Z,31.4
2022-11-26T00:22:07.206Z,31.1
2022-11-26T00:27:44.597Z,28.9
2022-11-26T00:33:06.743Z,27.2
2022-11-26T00:38:45.146Z,26.6
2022-11-26T00:44:25.006Z,25.9
2022-11-26T00:50:02.937Z,25.5
2022-11-26T00:55:25.855Z,24.9
2022-11-26T01:01:04.289Z,24.5
2022-11-26T01:06:42.079Z,24.1
2022-11-26T01:12:10.191Z,25.6
2022-11-26T01:17:48.184Z,31.6
2022-11-26T01:23:28.267Z,31.4
2022-11-26T01:28:54.655Z,29.3
2022-11-26T01:34:32.467Z,27.1
2022-11-26T01:40:10.127Z,26.4
2022-11-26T01:45:48.085Z,25.7
2022-11-26T01:51:26.253Z,25.3
2022-11-26T01:57:04.145Z,24.7
2022-11-26T02:02:33.043Z,24.3
2022-11-26T02:07:40.268Z,23.9
2022-11-26T02:13:17.652Z,25.1
2022-11-26T02:18:55.647Z,31.3
2022-11-26T02:24:33.116Z,32.1
2022-11-26T02:29:55.450Z,29.7
2022-11-26T02:35:23.770Z,27.3
2022-11-26T02:41:00.909Z,26.4
2022-11-26T02:45:52.093Z,25.5
2022-11-26T02:51:33.462Z,25.3
2022-11-26T02:57:12.205Z,24.6
2022-11-26T03:02:50.403Z,24.3
2022-11-26T03:08:29.361Z,29.3
2022-11-26T03:13:51.960Z,32.3
2022-11-26T03:19:30.439Z,31.1
2022-11-26T03:24:52.784Z,29.4
2022-11-26T03:29:59.448Z,26.8
2022-11-26T03:35:21.498Z,26.2
2022-11-26T03:40:59.467Z,25.4
2022-11-26T03:46:37.876Z,25.1
2022-11-26T03:51:59.501Z,24.4
2022-11-26T03:57:37.687Z,24.1
2022-11-26T04:03:16.247Z,30.7
2022-11-26T04:08:38.633Z,33.1
2022-11-26T04:14:16.900Z,30.4
2022-11-26T04:19:54.692Z,28.2
2022-11-26T04:25:36.698Z,26.5
2022-11-26T04:31:13.790Z,25.7
2022-11-26T04:36:52.054Z,25.2
2022-11-26T04:42:34.758Z,24.6
2022-11-26T04:48:15.994Z,24.3
2022-11-26T04:53:55.839Z,28.7
2022-11-26T04:59:33.767Z,32.1
2022-11-26T05:05:16.807Z,26.2
2022-11-26T05:10:38.949Z,29.4
2022-11-26T05:16:01.313Z,32.9
2022-11-26T05:21:23.840Z,30.6
2022-11-26T05:26:46.240Z,28.7
2022-11-26T05:32:24.185Z,26.6
2022-11-26T05:37:47.849Z,25.8
2022-11-26T05:43:30.930Z,25.3
2022-11-26T05:48:53.194Z,24.7
2022-11-26T05:54:15.614Z,24.3
2022-11-26T05:59:57.131Z,26.8
2022-11-26T06:05:35.892Z,31.6
2022-11-26T06:11:18.145Z,32.7
2022-11-26T06:16:25.539Z,30.1
2022-11-26T06:27:33.781Z,26.3
2022-11-26T06:33:16.758Z,25.5
2022-11-26T06:39:00.320Z,25.1
2022-11-26T06:44:22.715Z,24.4
2022-11-26T06:50:04.115Z,24.1
2022-11-26T06:55:44.761Z,29.1
2022-11-26T07:01:22.376Z,32.4
2022-11-26T07:07:04.425Z,31.8
2022-11-26T07:12:46.761Z,29.6
2022-11-26T07:18:24.801Z,26.8
2022-11-26T07:24:03.329Z,25.9
2022-11-26T07:29:26.075Z,25.2
2022-11-26T07:35:09.623Z,24.8
2022-11-26T07:40:51.048Z,24.3
2022-11-26T07:46:29.829Z,24.6
2022-11-26T07:52:10.213Z,30.9
2022-11-26T07:57:47.586Z,33.1
2022-11-26T08:03:26.416Z,30.2
2022-11-26T08:09:09.156Z,28.3
2022-11-26T08:14:47.396Z,26.1
2022-11-26T08:20:28.803Z,25.4
2022-11-26T08:26:42.492Z,24.9
2022-11-26T08:32:21.491Z,24.4
2022-11-26T08:38:31.773Z,24.1
2022-11-26T08:44:38.372Z,30
2022-11-26T08:50:01.564Z,33
2022-11-26T08:55:59.572Z,31.1
2022-11-26T09:01:37.816Z,28.9
2022-11-26T09:07:19.040Z,26.2
2022-11-26T09:12:56.665Z,25.6
2022-11-26T09:18:39.094Z,25
2022-11-26T09:24:01.988Z,24.6
2022-11-26T09:29:39.487Z,24.2
2022-11-26T09:35:50.758Z,27.4
2022-11-26T09:41:28.502Z,32.3
2022-11-26T09:47:12.378Z,32.6
2022-11-26T09:52:55.747Z,29.3
2022-11-26T09:58:38.415Z,26.7
2022-11-26T10:04:16.439Z,25.8
2022-11-26T10:09:54.655Z,25.1
2022-11-26T10:16:14.603Z,24.7
2022-11-26T10:22:19.027Z,25.9
2022-11-26T10:27:42.520Z,31.9
2022-11-26T10:33:20.714Z,33.6
2022-11-26T10:39:04.156Z,29.9
2022-11-26T10:44:46.805Z,28.6
2022-11-26T10:56:11.399Z,26.5
2022-11-26T11:01:52.934Z,31.7
2022-11-26T11:08:03.010Z,33.8
2022-11-26T11:13:40.668Z,30.1
2022-11-26T11:19:09.179Z,28.9
2022-11-26T11:25:23.531Z,28.2
2022-11-26T11:31:01.293Z,28.8
2022-11-26T11:36:40.093Z,32.7
2022-11-26T11:42:17.296Z,32.3
2022-11-26T11:47:54.959Z,29.8
2022-11-26T11:53:32.819Z,28.9
2022-11-26T11:59:08.986Z,28.1
2022-11-26T12:04:52.567Z,31.9
2022-11-26T12:10:15.370Z,32.9
2022-11-26T12:15:56.856Z,30.1
2022-11-26T12:21:42.040Z,29
2022-11-26T12:27:28.701Z,28.2
2022-11-26T12:32:50.950Z,29.5
2022-11-26T12:38:18.675Z,33.1
2022-11-26T12:44:03.451Z,31.3
2022-11-26T12:49:27.357Z,29.4
2022-11-26T12:54:49.633Z,28.6
2022-11-26T13:00:12.548Z,27.9
2022-11-26T13:06:38.080Z,30.2
2022-11-26T13:12:18.759Z,33.7
2022-11-26T13:17:42.353Z,30.3
2022-11-26T13:23:04.926Z,29.1
2022-11-26T13:28:29.644Z,28.4
2022-11-26T13:33:53.389Z,27.8
2022-11-26T13:39:15.076Z,29.4
2022-11-26T13:44:53.000Z,33.1
2022-11-26T13:50:32.013Z,30.8
2022-11-26T13:55:57.579Z,28.9
2022-11-26T14:01:26.846Z,28.1
2022-11-26T14:07:10.491Z,27.6
2022-11-26T14:12:17.593Z,26.8
2022-11-26T14:17:55.546Z,31.5
2022-11-26T14:23:37.470Z,32.8
2022-11-26T14:29:20.068Z,29.6
2022-11-26T14:34:58.738Z,28.6
2022-11-26T14:40:36.107Z,27.9
2022-11-26T14:46:16.886Z,27.3
2022-11-26T14:51:58.327Z,29.2
2022-11-26T14:57:21.097Z,32.9
2022-11-26T15:02:43.462Z,31.3
2022-11-26T15:08:22.266Z,29
2022-11-26T15:14:02.983Z,28.2
2022-11-26T15:19:41.759Z,27.6
2022-11-26T15:25:23.025Z,26.8
2022-11-26T15:31:01.100Z,31.3
2022-11-26T15:36:39.577Z,32.9
2022-11-26T15:42:17.664Z,29.9
2022-11-26T15:48:03.440Z,28.8
2022-11-26T15:53:21.933Z,28
2022-11-26T15:59:21.773Z,27.3
2022-11-26T16:05:05.596Z,29.9
2022-11-26T16:10:51.000Z,33
2022-11-26T16:16:13.107Z,30.6
2022-11-26T16:21:52.753Z,28.7
2022-11-26T16:27:30.447Z,26.1
2022-11-26T16:33:12.221Z,25.5
2022-11-26T16:39:29.973Z,25
2022-11-26T16:45:08.187Z,24.5
2022-11-26T16:50:47.898Z,24.2
2022-11-26T16:56:26.310Z,28.6
2022-11-26T17:01:50.193Z,32.3
2022-11-26T17:07:29.095Z,32.6
2022-11-26T17:13:12.705Z,29.9
2022-11-26T17:18:51.164Z,26.9
2022-11-26T17:24:15.548Z,26
2022-11-26T17:29:59.335Z,25.3
2022-11-26T17:35:22.130Z,24.9
2022-11-26T17:46:14.649Z,24
2022-11-26T17:52:04.798Z,30.4
2022-11-26T17:57:42.499Z,32.9
2022-11-26T18:03:11.823Z,31.1
2022-11-26T18:08:35.020Z,29.6
2022-11-26T18:14:12.116Z,26.5
2022-11-26T18:19:37.242Z,25.8
2022-11-26T18:25:17.103Z,25
2022-11-26T18:30:38.785Z,24.6
2022-11-26T18:36:22.794Z,24.1
2022-11-26T18:41:45.565Z,28.3
2022-11-26T18:47:58.748Z,32.3
2022-11-26T18:53:25.317Z,32.4
2022-11-26T18:59:03.116Z,30
2022-11-26T19:04:46.674Z,26.9
2022-11-26T19:10:24.571Z,25.9
2022-11-26T19:16:02.598Z,25.1
2022-11-26T19:21:41.004Z,24.8
2022-11-26T19:27:23.092Z,24.2
2022-11-26T19:33:05.525Z,26.6
2022-11-26T19:38:43.705Z,31.6
2022-11-26T19:44:27.911Z,33.4
2022-11-26T19:50:06.118Z,30.4
2022-11-26T19:55:49.935Z,28.2
2022-11-26T20:01:28.331Z,26.2
2022-11-26T20:06:58.055Z,25.3
2022-11-26T20:12:24.756Z,24.9
2022-11-26T20:18:08.224Z,24.3
2022-11-26T20:23:51.386Z,23.9
2022-11-26T20:29:29.021Z,30.5
2022-11-26T20:35:10.648Z,32.7
2022-11-26T20:40:49.862Z,31.7
2022-11-26T20:46:30.534Z,29.3
2022-11-26T20:52:13.069Z,26.4
2022-11-26T20:57:41.236Z,25.6
2022-11-26T21:03:04.420Z,24.9
2022-11-26T21:08:28.832Z,24.6
2022-11-26T21:14:10.696Z,24.1
2022-11-26T21:19:52.098Z,28.1
2022-11-26T21:25:20.703Z,27.1
2022-11-26T21:30:59.479Z,25.3
2022-11-26T21:36:28.523Z,31.2
2022-11-26T21:42:05.959Z,33.1
2022-11-26T21:47:45.461Z,30.5
2022-11-26T21:53:07.860Z,28.9
2022-11-26T21:58:45.099Z,26.1
2022-11-26T22:04:24.471Z,25.4
2022-11-26T22:10:04.064Z,24.8
2022-11-26T22:15:26.031Z,24.3
2022-11-26T22:21:05.426Z,23.9
2022-11-26T22:26:11.322Z,30
2022-11-26T22:31:50.558Z,32.2
2022-11-26T22:37:28.790Z,32.5
2022-11-26T22:43:12.263Z,29.7
2022-11-26T22:48:50.308Z,26.9
2022-11-26T22:54:12.861Z,25.8
2022-11-26T22:59:56.099Z,25
2022-11-26T23:05:35.480Z,24.6
2022-11-26T23:10:59.045Z,24.1
2022-11-26T23:16:06.453Z,27.1
2022-11-26T23:21:13.831Z,30.9
2022-11-26T23:26:26.324Z,32.4
2022-11-26T23:32:05.475Z,32.4
2022-11-26T23:37:43.179Z,29.7
2022-11-26T23:43:25.224Z,27.2
2022-11-26T23:49:03.847Z,25.8
2022-11-26T23:54:26.911Z,25
2022-11-26T23:59:49.454Z,24.6
